createdAt,value
2018-07-22T19:49:19.947Z,23.68
2018-07-22T19:50:19.903Z,23.67
2018-07-22T19:52:12.665Z,23.68
2018-07-22T19:53:12.586Z,23.67
2018-07-22T19:55:05.367Z,23.64
2018-07-22T19:56:05.311Z,23.63
2018-07-22T19:57:58.108Z,23.63
2018-07-22T19:58:58.026Z,23.60
2018-07-22T20:00:50.826Z,23.47
2018-07-22T20:01:50.771Z,23.45
2018-07-22T20:03:43.550Z,23.39
2018-07-22T20:04:43.473Z,23.35
2018-07-22T20:06:36.244Z,23.34
2018-07-22T20:07:36.199Z,23.31
2018-07-22T20:09:29.052Z,23.26
2018-07-22T20:10:28.947Z,23.23
2018-07-22T20:12:21.739Z,23.23
2018-07-22T20:13:21.683Z,23.19
2018-07-22T20:15:14.459Z,23.14
2018-07-22T20:16:14.387Z,23.04
2018-07-22T20:18:07.173Z,23.00
2018-07-22T20:19:07.095Z,22.99
2018-07-22T20:20:59.930Z,22.97
2018-07-22T20:21:59.859Z,22.89
2018-07-22T20:23:52.780Z,22.93
2018-07-22T20:24:52.595Z,22.84
2018-07-22T20:26:45.398Z,22.78
2018-07-22T20:27:45.331Z,22.75
2018-07-22T20:29:38.104Z,22.75
2018-07-22T20:30:38.030Z,22.61
2018-07-22T20:32:30.829Z,22.66
2018-07-22T20:33:30.764Z,22.63
2018-07-22T20:35:23.628Z,22.64
2018-07-22T20:36:23.487Z,22.46
2018-07-22T20:38:16.263Z,22.42
2018-07-22T20:39:16.192Z,22.46
2018-07-22T20:41:08.988Z,22.49
2018-07-22T20:42:08.919Z,22.52
2018-07-22T20:44:01.706Z,22.45
2018-07-22T20:45:01.637Z,22.48
2018-07-22T20:46:54.413Z,22.35
2018-07-22T20:47:54.352Z,22.35
2018-07-22T20:49:47.143Z,22.39
2018-07-22T20:50:47.063Z,22.35
2018-07-22T20:52:39.848Z,22.41
2018-07-22T20:53:39.786Z,22.36
2018-07-22T20:55:32.581Z,22.38
2018-07-22T20:56:32.507Z,22.29
2018-07-22T20:58:25.301Z,22.27
2018-07-22T20:59:25.227Z,22.30
2018-07-22T21:01:18.057Z,22.29
2018-07-22T21:02:17.998Z,22.19
2018-07-22T21:04:10.908Z,22.14
2018-07-22T21:05:10.759Z,22.21
2018-07-22T21:07:03.580Z,22.12
2018-07-22T21:08:03.494Z,22.11
2018-07-22T21:09:56.241Z,22.14
2018-07-22T21:10:56.167Z,22.02
2018-07-22T21:12:48.934Z,21.98
2018-07-22T21:13:48.882Z,21.98
2018-07-22T21:15:41.717Z,21.91
2018-07-22T21:16:41.651Z,21.91
2018-07-22T21:18:34.465Z,21.79
2018-07-22T21:19:34.384Z,21.83
2018-07-22T21:21:27.183Z,21.82
2018-07-22T21:22:27.108Z,21.77
2018-07-22T21:24:19.889Z,21.77
2018-07-22T21:25:19.828Z,21.68
2018-07-22T21:27:12.600Z,21.71
2018-07-22T21:28:12.560Z,21.68
2018-07-22T21:30:05.564Z,21.73
2018-07-22T21:31:05.327Z,21.71
2018-07-22T21:32:58.088Z,21.71
2018-07-22T21:33:58.024Z,21.66
2018-07-22T21:35:50.831Z,21.59
2018-07-22T21:36:50.770Z,21.66
2018-07-22T21:38:43.555Z,21.61
2018-07-22T21:39:43.477Z,21.58
2018-07-22T21:41:36.320Z,21.46
2018-07-22T21:42:36.206Z,21.53
2018-07-22T21:44:29.041Z,21.49
2018-07-22T21:45:28.931Z,21.48
2018-07-22T21:47:21.718Z,21.53
2018-07-22T21:48:21.656Z,21.49
2018-07-22T21:50:14.464Z,21.45
2018-07-22T21:51:14.393Z,21.49
2018-07-22T21:53:07.225Z,21.24
2018-07-22T21:54:07.095Z,21.30
2018-07-22T21:55:59.915Z,21.26
2018-07-22T21:56:59.845Z,21.30
2018-07-22T21:58:52.668Z,21.21
2018-07-22T21:59:52.617Z,21.05
2018-07-22T22:01:45.390Z,21.16
2018-07-22T22:02:45.306Z,21.12
2018-07-22T22:04:38.105Z,21.09
2018-07-22T22:05:38.030Z,21.12
2018-07-22T22:07:30.856Z,21.15
2018-07-22T22:08:30.789Z,21.11
2018-07-22T22:10:23.596Z,21.06
2018-07-22T22:11:23.620Z,21.06
2018-07-22T22:13:16.299Z,21.06
2018-07-22T22:14:16.228Z,21.03
2018-07-22T22:16:09.050Z,21.03
2018-07-22T22:17:09.031Z,21.00
2018-07-22T22:19:01.715Z,20.97
2018-07-22T22:20:01.650Z,21.00
2018-07-22T22:21:54.454Z,21.03
2018-07-22T22:22:54.383Z,21.01
2018-07-22T22:24:47.251Z,20.96
2018-07-22T22:25:47.090Z,21.01
2018-07-22T22:27:39.890Z,20.88
2018-07-22T22:28:39.819Z,20.94
2018-07-22T22:30:32.651Z,20.90
2018-07-22T22:31:32.557Z,20.87
2018-07-22T22:33:25.363Z,20.82
2018-07-22T22:34:25.297Z,20.82
2018-07-22T22:36:18.167Z,20.82
2018-07-22T22:37:18.096Z,20.78
2018-07-22T22:39:10.889Z,20.88
2018-07-22T22:40:10.810Z,20.81
2018-07-22T22:42:03.601Z,20.90
2018-07-22T22:43:03.538Z,20.85
2018-07-22T22:44:56.540Z,20.83
2018-07-22T22:45:56.449Z,20.83
2018-07-22T22:47:49.238Z,20.83
2018-07-22T22:48:49.193Z,20.78
2018-07-22T22:50:41.997Z,20.75
2018-07-22T22:51:41.894Z,20.73
2018-07-22T22:53:34.702Z,20.76
2018-07-22T22:54:34.624Z,20.63
2018-07-22T22:56:27.418Z,20.61
2018-07-22T22:57:27.331Z,20.66
2018-07-22T22:59:20.128Z,20.66
2018-07-22T23:00:20.059Z,20.79
2018-07-22T23:02:12.860Z,20.71
2018-07-22T23:03:12.777Z,20.71
2018-07-22T23:05:05.568Z,20.78
2018-07-22T23:06:05.494Z,20.72
2018-07-22T23:07:58.275Z,20.72
2018-07-22T23:08:58.209Z,20.78
2018-07-22T23:10:51.018Z,20.79
2018-07-22T23:11:50.939Z,20.81
2018-07-22T23:13:43.722Z,20.76
2018-07-22T23:14:43.660Z,20.66
2018-07-22T23:16:36.463Z,20.66
2018-07-22T23:17:36.387Z,20.63
2018-07-22T23:19:29.192Z,20.78
2018-07-22T23:20:29.133Z,20.76
2018-07-22T23:22:21.949Z,20.78
2018-07-22T23:23:21.868Z,20.68
2018-07-22T23:25:14.665Z,20.76
2018-07-22T23:26:14.588Z,20.66
2018-07-22T23:28:07.443Z,20.66
2018-07-22T23:29:07.321Z,20.66
2018-07-22T23:31:00.113Z,20.61
2018-07-22T23:32:00.034Z,20.64
2018-07-22T23:33:52.816Z,20.54
2018-07-22T23:34:52.769Z,20.38
2018-07-22T23:36:45.542Z,20.51
2018-07-22T23:37:45.465Z,20.50
2018-07-22T23:39:38.515Z,20.44
2018-07-22T23:40:38.411Z,20.31
2018-07-22T23:42:31.196Z,20.37
2018-07-22T23:43:31.127Z,20.38
2018-07-22T23:45:23.902Z,20.44
2018-07-22T23:46:23.824Z,20.38
2018-07-22T23:48:16.640Z,20.38
2018-07-22T23:49:16.564Z,20.46
2018-07-22T23:51:09.371Z,20.54
2018-07-22T23:52:09.295Z,20.54
2018-07-22T23:54:02.102Z,20.69
2018-07-22T23:55:02.007Z,20.63
2018-07-22T23:56:54.833Z,20.72
2018-07-22T23:57:54.731Z,20.75
2018-07-22T23:59:47.512Z,20.60
